sensor_id;sensor_type;location;lat;lon;timestamp;P1;durP1;ratioP1;P2;durP2;ratioP2
9082;SDS011;4577;48.704;9.000;2022-12-18T00:00:57;62.00;;;25.93;;
9082;SDS011;4577;48.704;9.000;2022-12-18T00:03:23;67.63;;;26.30;;
9082;SDS011;4577;48.704;9.000;2022-12-18T00:05:50;78.60;;;29.63;;
9082;SDS011;4577;48.704;9.000;2022-12-18T00:08:17;88.90;;;31.47;;
9082;SDS011;4577;48.704;9.000;2022-12-18T00:10:44;67.63;;;27.37;;
9082;SDS011;4577;48.704;9.000;2022-12-18T00:13:10;59.87;;;24.20;;
9082;SDS011;4577;48.704;9.000;2022-12-18T00:15:37;59.80;;;24.73;;
9082;SDS011;4577;48.704;9.000;2022-12-18T00:18:04;59.23;;;23.37;;
9082;SDS011;4577;48.704;9.000;2022-12-18T00:20:31;60.73;;;22.53;;
9082;SDS011;4577;48.704;9.000;2022-12-18T00:23:00;57.73;;;23.87;;
9082;SDS011;4577;48.704;9.000;2022-12-18T00:25:27;59.87;;;22.90;;
9082;SDS011;4577;48.704;9.000;2022-12-18T00:27:52;51.80;;;23.50;;
9082;SDS011;4577;48.704;9.000;2022-12-18T00:30:19;68.67;;;23.50;;
9082;SDS011;4577;48.704;9.000;2022-12-18T00:32:45;60.53;;;25.97;;
9082;SDS011;4577;48.704;9.000;2022-12-18T00:35:11;64.70;;;24.40;;
9082;SDS011;4577;48.704;9.000;2022-12-18T00:37:40;61.23;;;23.30;;
9082;SDS011;4577;48.704;9.000;2022-12-18T00:40:07;66.57;;;27.50;;
9082;SDS011;4577;48.704;9.000;2022-12-18T00:46:00;70.40;;;25.10;;
9082;SDS011;4577;48.704;9.000;2022-12-18T00:48:29;56.70;;;21.70;;
9082;SDS011;4577;48.704;9.000;2022-12-18T00:50:55;57.93;;;23.00;;
9082;SDS011;4577;48.704;9.000;2022-12-18T00:53:21;62.80;;;24.47;;
9082;SDS011;4577;48.704;9.000;2022-12-18T00:55:47;55.30;;;23.37;;
9082;SDS011;4577;48.704;9.000;2022-12-18T00:58:14;58.60;;;23.73;;
9082;SDS011;4577;48.704;9.000;2022-12-18T01:00:42;58.33;;;24.87;;
9082;SDS011;4577;48.704;9.000;2022-12-18T01:03:09;59.13;;;24.23;;
9082;SDS011;4577;48.704;9.000;2022-12-18T01:05:38;62.40;;;24.90;;
9082;SDS011;4577;48.704;9.000;2022-12-18T01:08:05;61.07;;;24.63;;
9082;SDS011;4577;48.704;9.000;2022-12-18T01:10:31;61.07;;;26.07;;
9082;SDS011;4577;48.704;9.000;2022-12-18T01:12:57;66.20;;;27.47;;
9082;SDS011;4577;48.704;9.000;2022-12-18T01:15:23;64.07;;;25.53;;
9082;SDS011;4577;48.704;9.000;2022-12-18T01:17:51;63.30;;;24.97;;
9082;SDS011;4577;48.704;9.000;2022-12-18T01:20:18;58.70;;;25.63;;
9082;SDS011;4577;48.704;9.000;2022-12-18T01:22:44;63.63;;;25.10;;
9082;SDS011;4577;48.704;9.000;2022-12-18T01:25:10;63.27;;;25.00;;
9082;SDS011;4577;48.704;9.000;2022-12-18T01:27:36;58.90;;;23.77;;
9082;SDS011;4577;48.704;9.000;2022-12-18T01:30:02;64.87;;;24.77;;
9082;SDS011;4577;48.704;9.000;2022-12-18T01:32:29;59.27;;;22.40;;
9082;SDS011;4577;48.704;9.000;2022-12-18T01:34:56;46.50;;;19.07;;
9082;SDS011;4577;48.704;9.000;2022-12-18T01:37:22;47.80;;;20.00;;
9082;SDS011;4577;48.704;9.000;2022-12-18T01:39:48;48.47;;;18.93;;
9082;SDS011;4577;48.704;9.000;2022-12-18T01:42:15;41.40;;;16.90;;
9082;SDS011;4577;48.704;9.000;2022-12-18T01:45:01;36.90;;;14.40;;
9082;SDS011;4577;48.704;9.000;2022-12-18T01:50:21;38.73;;;15.87;;
9082;SDS011;4577;48.704;9.000;2022-12-18T01:53:33;47.80;;;16.17;;
9082;SDS011;4577;48.704;9.000;2022-12-18T01:55:48;36.37;;;15.50;;
9082;SDS011;4577;48.704;9.000;2022-12-18T01:58:18;38.43;;;15.73;;
9082;SDS011;4577;48.704;9.000;2022-12-18T02:00:45;36.90;;;16.13;;
9082;SDS011;4577;48.704;9.000;2022-12-18T02:03:11;37.77;;;15.67;;
9082;SDS011;4577;48.704;9.000;2022-12-18T02:05:46;45.17;;;17.00;;
9082;SDS011;4577;48.704;9.000;2022-12-18T02:08:20;42.63;;;16.87;;
9082;SDS011;4577;48.704;9.000;2022-12-18T02:11:05;38.03;;;15.77;;
9082;SDS011;4577;48.704;9.000;2022-12-18T02:13:38;37.10;;;16.10;;
9082;SDS011;4577;48.704;9.000;2022-12-18T02:18:55;40.53;;;16.73;;
9082;SDS011;4577;48.704;9.000;2022-12-18T02:21:28;46.40;;;18.37;;
9082;SDS011;4577;48.704;9.000;2022-12-18T02:26:55;44.90;;;18.20;;
9082;SDS011;4577;48.704;9.000;2022-12-18T02:29:25;48.50;;;19.27;;
9082;SDS011;4577;48.704;9.000;2022-12-18T02:32:02;50.50;;;20.93;;
9082;SDS011;4577;48.704;9.000;2022-12-18T02:34:34;53.10;;;21.43;;
9082;SDS011;4577;48.704;9.000;2022-12-18T02:37:04;52.83;;;21.80;;
9082;SDS011;4577;48.704;9.000;2022-12-18T02:39:34;50.43;;;19.93;;
9082;SDS011;4577;48.704;9.000;2022-12-18T02:42:03;51.20;;;21.97;;
9082;SDS011;4577;48.704;9.000;2022-12-18T02:44:33;47.13;;;20.47;;
9082;SDS011;4577;48.704;9.000;2022-12-18T02:47:00;50.27;;;20.80;;
9082;SDS011;4577;48.704;9.000;2022-12-18T02:52:11;49.83;;;20.17;;
9082;SDS011;4577;48.704;9.000;2022-12-18T02:55:00;55.20;;;20.27;;
9082;SDS011;4577;48.704;9.000;2022-12-18T02:57:42;43.47;;;18.23;;
9082;SDS011;4577;48.704;9.000;2022-12-18T03:00:29;91.60;;;29.20;;
9082;SDS011;4577;48.704;9.000;2022-12-18T03:03:04;56.10;;;22.20;;
9082;SDS011;4577;48.704;9.000;2022-12-18T03:05:47;57.33;;;19.70;;
9082;SDS011;4577;48.704;9.000;2022-12-18T03:08:22;46.57;;;19.40;;
9082;SDS011;4577;48.704;9.000;2022-12-18T03:14:07;46.17;;;18.60;;
9082;SDS011;4577;48.704;9.000;2022-12-18T03:16:36;53.23;;;19.07;;
9082;SDS011;4577;48.704;9.000;2022-12-18T03:19:21;40.27;;;17.50;;
9082;SDS011;4577;48.704;9.000;2022-12-18T03:21:52;41.70;;;16.97;;
9082;SDS011;4577;48.704;9.000;2022-12-18T03:24:21;46.53;;;19.50;;
9082;SDS011;4577;48.704;9.000;2022-12-18T03:26:49;47.47;;;20.47;;
9082;SDS011;4577;48.704;9.000;2022-12-18T03:31:47;50.10;;;19.70;;
9082;SDS011;4577;48.704;9.000;2022-12-18T03:34:21;47.07;;;20.27;;
9082;SDS011;4577;48.704;9.000;2022-12-18T03:36:51;52.90;;;20.33;;
9082;SDS011;4577;48.704;9.000;2022-12-18T03:39:18;48.20;;;20.00;;
9082;SDS011;4577;48.704;9.000;2022-12-18T03:41:47;46.97;;;19.80;;
9082;SDS011;4577;48.704;9.000;2022-12-18T03:47:09;77.03;;;27.53;;
9082;SDS011;4577;48.704;9.000;2022-12-18T03:52:49;33.70;;;15.03;;
9082;SDS011;4577;48.704;9.000;2022-12-18T03:55:22;38.63;;;16.70;;
9082;SDS011;4577;48.704;9.000;2022-12-18T03:57:50;33.60;;;14.60;;
9082;SDS011;4577;48.704;9.000;2022-12-18T04:00:19;43.33;;;17.27;;
9082;SDS011;4577;48.704;9.000;2022-12-18T04:02:48;37.80;;;16.70;;
9082;SDS011;4577;48.704;9.000;2022-12-18T04:05:18;37.97;;;16.80;;
9082;SDS011;4577;48.704;9.000;2022-12-18T04:07:46;40.00;;;17.23;;
9082;SDS011;4577;48.704;9.000;2022-12-18T04:10:13;42.97;;;17.00;;
9082;SDS011;4577;48.704;9.000;2022-12-18T04:12:41;40.43;;;17.40;;
9082;SDS011;4577;48.704;9.000;2022-12-18T04:15:08;37.50;;;16.07;;
9082;SDS011;4577;48.704;9.000;2022-12-18T04:17:35;36.87;;;16.53;;
9082;SDS011;4577;48.704;9.000;2022-12-18T04:20:01;36.67;;;16.10;;
9082;SDS011;4577;48.704;9.000;2022-12-18T04:22:27;35.70;;;15.97;;
9082;SDS011;4577;48.704;9.000;2022-12-18T04:24:53;36.37;;;15.47;;
9082;SDS011;4577;48.704;9.000;2022-12-18T04:27:18;41.40;;;16.20;;
9082;SDS011;4577;48.704;9.000;2022-12-18T04:29:44;39.10;;;15.87;;
9082;SDS011;4577;48.704;9.000;2022-12-18T04:32:10;36.83;;;15.40;;
9082;SDS011;4577;48.704;9.000;2022-12-18T04:34:36;38.77;;;16.70;;
9082;SDS011;4577;48.704;9.000;2022-12-18T04:37:02;37.73;;;16.17;;
9082;SDS011;4577;48.704;9.000;2022-12-18T04:39:28;38.03;;;14.77;;
9082;SDS011;4577;48.704;9.000;2022-12-18T04:41:54;40.03;;;17.27;;
9082;SDS011;4577;48.704;9.000;2022-12-18T04:44:20;33.03;;;15.47;;
9082;SDS011;4577;48.704;9.000;2022-12-18T04:46:46;37.80;;;15.70;;
9082;SDS011;4577;48.704;9.000;2022-12-18T04:49:12;35.27;;;16.10;;
9082;SDS011;4577;48.704;9.000;2022-12-18T04:51:39;42.33;;;17.17;;
9082;SDS011;4577;48.704;9.000;2022-12-18T04:54:05;43.17;;;16.00;;
9082;SDS011;4577;48.704;9.000;2022-12-18T04:56:31;36.67;;;16.10;;
9082;SDS011;4577;48.704;9.000;2022-12-18T04:58:57;42.57;;;16.77;;
9082;SDS011;4577;48.704;9.000;2022-12-18T05:01:23;40.60;;;16.37;;
9082;SDS011;4577;48.704;9.000;2022-12-18T05:03:50;40.40;;;16.17;;
9082;SDS011;4577;48.704;9.000;2022-12-18T05:06:17;48.50;;;16.97;;
9082;SDS011;4577;48.704;9.000;2022-12-18T05:08:43;42.87;;;16.60;;
9082;SDS011;4577;48.704;9.000;2022-12-18T05:11:10;44.10;;;17.27;;
9082;SDS011;4577;48.704;9.000;2022-12-18T05:13:40;38.77;;;16.27;;
9082;SDS011;4577;48.704;9.000;2022-12-18T05:16:07;45.00;;;17.23;;
9082;SDS011;4577;48.704;9.000;2022-12-18T05:18:33;45.27;;;16.73;;
9082;SDS011;4577;48.704;9.000;2022-12-18T05:20:59;41.43;;;15.70;;
9082;SDS011;4577;48.704;9.000;2022-12-18T05:23:25;41.20;;;16.07;;
9082;SDS011;4577;48.704;9.000;2022-12-18T05:25:52;38.17;;;14.90;;
9082;SDS011;4577;48.704;9.000;2022-12-18T05:28:23;38.93;;;15.10;;
9082;SDS011;4577;48.704;9.000;2022-12-18T05:30:51;41.00;;;15.90;;
9082;SDS011;4577;48.704;9.000;2022-12-18T05:33:19;44.07;;;16.77;;
9082;SDS011;4577;48.704;9.000;2022-12-18T05:35:49;42.47;;;16.30;;
9082;SDS011;4577;48.704;9.000;2022-12-18T05:38:16;36.53;;;14.17;;
9082;SDS011;4577;48.704;9.000;2022-12-18T05:40:42;42.53;;;16.00;;
9082;SDS011;4577;48.704;9.000;2022-12-18T05:43:08;34.53;;;15.33;;
9082;SDS011;4577;48.704;9.000;2022-12-18T05:45:36;44.27;;;16.53;;
9082;SDS011;4577;48.704;9.000;2022-12-18T05:48:03;37.20;;;16.73;;
9082;SDS011;4577;48.704;9.000;2022-12-18T05:50:30;38.13;;;16.30;;
9082;SDS011;4577;48.704;9.000;2022-12-18T05:52:56;34.03;;;15.40;;
9082;SDS011;4577;48.704;9.000;2022-12-18T05:55:22;46.70;;;19.17;;
9082;SDS011;4577;48.704;9.000;2022-12-18T05:57:48;43.63;;;16.73;;
9082;SDS011;4577;48.704;9.000;2022-12-18T06:00:14;36.50;;;15.90;;
9082;SDS011;4577;48.704;9.000;2022-12-18T06:02:40;36.63;;;15.30;;
9082;SDS011;4577;48.704;9.000;2022-12-18T06:05:06;37.03;;;16.50;;
9082;SDS011;4577;48.704;9.000;2022-12-18T06:07:32;34.53;;;15.33;;
9082;SDS011;4577;48.704;9.000;2022-12-18T06:09:58;36.53;;;15.23;;
9082;SDS011;4577;48.704;9.000;2022-12-18T06:12:24;35.73;;;15.50;;
9082;SDS011;4577;48.704;9.000;2022-12-18T06:14:51;35.07;;;14.00;;
9082;SDS011;4577;48.704;9.000;2022-12-18T06:17:16;37.93;;;14.33;;
9082;SDS011;4577;48.704;9.000;2022-12-18T06:19:42;34.70;;;14.80;;
9082;SDS011;4577;48.704;9.000;2022-12-18T06:22:08;37.07;;;14.30;;
9082;SDS011;4577;48.704;9.000;2022-12-18T06:24:34;40.23;;;15.17;;
9082;SDS011;4577;48.704;9.000;2022-12-18T06:27:00;35.90;;;14.90;;
9082;SDS011;4577;48.704;9.000;2022-12-18T06:29:27;32.47;;;14.50;;
9082;SDS011;4577;48.704;9.000;2022-12-18T06:31:53;32.50;;;14.47;;
9082;SDS011;4577;48.704;9.000;2022-12-18T06:34:19;36.43;;;14.93;;
9082;SDS011;4577;48.704;9.000;2022-12-18T06:36:45;33.83;;;13.60;;
9082;SDS011;4577;48.704;9.000;2022-12-18T06:39:11;36.67;;;15.47;;
9082;SDS011;4577;48.704;9.000;2022-12-18T06:41:37;38.40;;;14.80;;
9082;SDS011;4577;48.704;9.000;2022-12-18T06:44:03;38.20;;;14.80;;
9082;SDS011;4577;48.704;9.000;2022-12-18T06:46:29;33.10;;;14.40;;
9082;SDS011;4577;48.704;9.000;2022-12-18T06:48:57;38.70;;;15.23;;
9082;SDS011;4577;48.704;9.000;2022-12-18T06:51:23;34.60;;;14.57;;
9082;SDS011;4577;48.704;9.000;2022-12-18T06:53:49;34.37;;;13.97;;
9082;SDS011;4577;48.704;9.000;2022-12-18T06:56:16;33.13;;;14.00;;
9082;SDS011;4577;48.704;9.000;2022-12-18T06:58:42;37.67;;;14.27;;
9082;SDS011;4577;48.704;9.000;2022-12-18T07:01:09;43.33;;;16.73;;
9082;SDS011;4577;48.704;9.000;2022-12-18T07:03:37;36.10;;;14.30;;
9082;SDS011;4577;48.704;9.000;2022-12-18T07:06:03;42.67;;;14.50;;
9082;SDS011;4577;48.704;9.000;2022-12-18T07:08:30;34.20;;;14.73;;
9082;SDS011;4577;48.704;9.000;2022-12-18T07:10:56;61.80;;;16.83;;
9082;SDS011;4577;48.704;9.000;2022-12-18T07:13:22;52.10;;;17.10;;
9082;SDS011;4577;48.704;9.000;2022-12-18T07:15:49;38.67;;;14.40;;
9082;SDS011;4577;48.704;9.000;2022-12-18T07:18:14;84.03;;;18.20;;
9082;SDS011;4577;48.704;9.000;2022-12-18T07:20:40;51.23;;;16.90;;
9082;SDS011;4577;48.704;9.000;2022-12-18T07:23:06;36.47;;;13.93;;
9082;SDS011;4577;48.704;9.000;2022-12-18T07:25:35;35.40;;;15.60;;
9082;SDS011;4577;48.704;9.000;2022-12-18T07:28:02;35.20;;;14.13;;
9082;SDS011;4577;48.704;9.000;2022-12-18T07:30:28;35.00;;;14.60;;
9082;SDS011;4577;48.704;9.000;2022-12-18T07:32:54;35.17;;;14.60;;
9082;SDS011;4577;48.704;9.000;2022-12-18T07:35:20;32.30;;;14.23;;
9082;SDS011;4577;48.704;9.000;2022-12-18T07:37:46;36.37;;;15.17;;
9082;SDS011;4577;48.704;9.000;2022-12-18T07:40:11;40.13;;;15.37;;
9082;SDS011;4577;48.704;9.000;2022-12-18T07:42:37;34.77;;;16.03;;
9082;SDS011;4577;48.704;9.000;2022-12-18T07:45:03;35.90;;;14.93;;
9082;SDS011;4577;48.704;9.000;2022-12-18T07:47:36;39.53;;;16.07;;
9082;SDS011;4577;48.704;9.000;2022-12-18T07:50:02;36.47;;;14.47;;
9082;SDS011;4577;48.704;9.000;2022-12-18T07:52:29;35.60;;;14.83;;
9082;SDS011;4577;48.704;9.000;2022-12-18T07:54:55;44.33;;;15.90;;
9082;SDS011;4577;48.704;9.000;2022-12-18T07:57:20;48.70;;;19.40;;
9082;SDS011;4577;48.704;9.000;2022-12-18T07:59:46;40.90;;;16.80;;
9082;SDS011;4577;48.704;9.000;2022-12-18T08:02:12;37.07;;;17.07;;
9082;SDS011;4577;48.704;9.000;2022-12-18T08:04:38;41.27;;;18.20;;
9082;SDS011;4577;48.704;9.000;2022-12-18T08:07:04;40.03;;;17.80;;
9082;SDS011;4577;48.704;9.000;2022-12-18T08:09:30;42.13;;;17.57;;
9082;SDS011;4577;48.704;9.000;2022-12-18T08:11:55;41.30;;;16.07;;
9082;SDS011;4577;48.704;9.000;2022-12-18T08:14:21;40.27;;;17.30;;
9082;SDS011;4577;48.704;9.000;2022-12-18T08:16:47;41.57;;;18.53;;
9082;SDS011;4577;48.704;9.000;2022-12-18T08:19:13;38.67;;;17.80;;
9082;SDS011;4577;48.704;9.000;2022-12-18T08:21:41;47.77;;;18.40;;
9082;SDS011;4577;48.704;9.000;2022-12-18T08:24:08;45.87;;;19.07;;
9082;SDS011;4577;48.704;9.000;2022-12-18T08:26:34;40.77;;;17.53;;
9082;SDS011;4577;48.704;9.000;2022-12-18T08:29:00;40.30;;;16.37;;
9082;SDS011;4577;48.704;9.000;2022-12-18T08:31:27;43.73;;;18.23;;
9082;SDS011;4577;48.704;9.000;2022-12-18T08:33:54;43.53;;;17.90;;
9082;SDS011;4577;48.704;9.000;2022-12-18T08:36:21;44.60;;;17.60;;
9082;SDS011;4577;48.704;9.000;2022-12-18T08:38:47;48.77;;;19.70;;
9082;SDS011;4577;48.704;9.000;2022-12-18T08:41:14;41.57;;;17.63;;
9082;SDS011;4577;48.704;9.000;2022-12-18T08:43:41;39.43;;;17.60;;
9082;SDS011;4577;48.704;9.000;2022-12-18T08:46:26;46.63;;;18.27;;
9082;SDS011;4577;48.704;9.000;2022-12-18T08:48:52;36.77;;;16.60;;
9082;SDS011;4577;48.704;9.000;2022-12-18T08:51:20;46.73;;;18.37;;
9082;SDS011;4577;48.704;9.000;2022-12-18T08:53:46;40.50;;;18.00;;
9082;SDS011;4577;48.704;9.000;2022-12-18T08:56:12;41.07;;;17.47;;
9082;SDS011;4577;48.704;9.000;2022-12-18T08:58:39;41.87;;;17.10;;
9082;SDS011;4577;48.704;9.000;2022-12-18T09:01:06;40.50;;;16.63;;
9082;SDS011;4577;48.704;9.000;2022-12-18T09:03:36;41.50;;;17.77;;
9082;SDS011;4577;48.704;9.000;2022-12-18T09:06:02;40.23;;;16.30;;
9082;SDS011;4577;48.704;9.000;2022-12-18T09:08:28;38.67;;;16.27;;
9082;SDS011;4577;48.704;9.000;2022-12-18T09:10:54;52.13;;;19.97;;
9082;SDS011;4577;48.704;9.000;2022-12-18T09:13:20;44.43;;;17.57;;
9082;SDS011;4577;48.704;9.000;2022-12-18T09:15:48;43.80;;;17.13;;
9082;SDS011;4577;48.704;9.000;2022-12-18T09:18:17;40.17;;;17.00;;
9082;SDS011;4577;48.704;9.000;2022-12-18T09:20:44;42.40;;;16.47;;
9082;SDS011;4577;48.704;9.000;2022-12-18T09:23:10;43.90;;;16.10;;
9082;SDS011;4577;48.704;9.000;2022-12-18T09:25:37;42.50;;;17.50;;
9082;SDS011;4577;48.704;9.000;2022-12-18T09:28:05;39.83;;;15.67;;
9082;SDS011;4577;48.704;9.000;2022-12-18T09:30:36;47.73;;;16.67;;
9082;SDS011;4577;48.704;9.000;2022-12-18T09:33:03;42.73;;;18.40;;
9082;SDS011;4577;48.704;9.000;2022-12-18T09:35:29;44.60;;;17.93;;
9082;SDS011;4577;48.704;9.000;2022-12-18T09:37:54;40.07;;;15.90;;
9082;SDS011;4577;48.704;9.000;2022-12-18T09:40:21;40.47;;;17.00;;
9082;SDS011;4577;48.704;9.000;2022-12-18T09:42:57;40.37;;;17.60;;
9082;SDS011;4577;48.704;9.000;2022-12-18T09:45:26;35.10;;;15.50;;
9082;SDS011;4577;48.704;9.000;2022-12-18T09:47:54;36.03;;;16.30;;
9082;SDS011;4577;48.704;9.000;2022-12-18T09:50:31;37.97;;;16.03;;
9082;SDS011;4577;48.704;9.000;2022-12-18T09:53:04;41.47;;;15.47;;
9082;SDS011;4577;48.704;9.000;2022-12-18T09:55:36;38.77;;;16.00;;
9082;SDS011;4577;48.704;9.000;2022-12-18T09:58:06;41.43;;;18.40;;
9082;SDS011;4577;48.704;9.000;2022-12-18T10:00:41;39.20;;;16.10;;
9082;SDS011;4577;48.704;9.000;2022-12-18T10:03:11;41.53;;;16.97;;
9082;SDS011;4577;48.704;9.000;2022-12-18T10:05:56;52.70;;;21.00;;
9082;SDS011;4577;48.704;9.000;2022-12-18T10:08:40;40.23;;;16.40;;
9082;SDS011;4577;48.704;9.000;2022-12-18T10:22:04;38.30;;;16.03;;
9082;SDS011;4577;48.704;9.000;2022-12-18T10:27:56;39.53;;;16.73;;
9082;SDS011;4577;48.704;9.000;2022-12-18T10:30:25;36.77;;;16.13;;
9082;SDS011;4577;48.704;9.000;2022-12-18T10:32:51;37.47;;;17.07;;
9082;SDS011;4577;48.704;9.000;2022-12-18T10:35:19;41.13;;;16.37;;
9082;SDS011;4577;48.704;9.000;2022-12-18T10:40:56;47.57;;;16.53;;
9082;SDS011;4577;48.704;9.000;2022-12-18T10:43:23;33.50;;;14.93;;
9082;SDS011;4577;48.704;9.000;2022-12-18T10:48:36;40.90;;;18.10;;
9082;SDS011;4577;48.704;9.000;2022-12-18T10:51:07;38.90;;;17.50;;
9082;SDS011;4577;48.704;9.000;2022-12-18T10:53:33;38.07;;;16.20;;
9082;SDS011;4577;48.704;9.000;2022-12-18T10:56:02;43.73;;;17.53;;
9082;SDS011;4577;48.704;9.000;2022-12-18T10:58:31;40.23;;;16.30;;
9082;SDS011;4577;48.704;9.000;2022-12-18T11:03:44;35.83;;;16.63;;
9082;SDS011;4577;48.704;9.000;2022-12-18T11:06:20;43.63;;;19.20;;
9082;SDS011;4577;48.704;9.000;2022-12-18T11:11:54;38.77;;;17.80;;
9082;SDS011;4577;48.704;9.000;2022-12-18T11:16:48;104.33;;;22.93;;
9082;SDS011;4577;48.704;9.000;2022-12-18T11:19:19;47.40;;;18.30;;
9082;SDS011;4577;48.704;9.000;2022-12-18T11:21:49;56.03;;;19.87;;
9082;SDS011;4577;48.704;9.000;2022-12-18T11:24:20;50.60;;;20.57;;
9082;SDS011;4577;48.704;9.000;2022-12-18T11:26:55;47.00;;;19.87;;
9082;SDS011;4577;48.704;9.000;2022-12-18T11:29:31;57.77;;;17.80;;
9082;SDS011;4577;48.704;9.000;2022-12-18T11:34:48;43.97;;;18.37;;
9082;SDS011;4577;48.704;9.000;2022-12-18T11:37:21;58.23;;;19.47;;
9082;SDS011;4577;48.704;9.000;2022-12-18T11:39:55;39.80;;;17.60;;
9082;SDS011;4577;48.704;9.000;2022-12-18T11:47:49;64.23;;;21.30;;
9082;SDS011;4577;48.704;9.000;2022-12-18T11:50:28;43.07;;;19.00;;
9082;SDS011;4577;48.704;9.000;2022-12-18T11:53:01;67.10;;;20.37;;
9082;SDS011;4577;48.704;9.000;2022-12-18T11:55:40;42.00;;;18.77;;
9082;SDS011;4577;48.704;9.000;2022-12-18T11:58:17;52.47;;;19.83;;
9082;SDS011;4577;48.704;9.000;2022-12-18T12:00:52;183.40;;;35.40;;
9082;SDS011;4577;48.704;9.000;2022-12-18T12:06:21;40.50;;;19.20;;
9082;SDS011;4577;48.704;9.000;2022-12-18T12:09:01;43.80;;;19.40;;
9082;SDS011;4577;48.704;9.000;2022-12-18T12:11:40;37.47;;;17.90;;
9082;SDS011;4577;48.704;9.000;2022-12-18T12:16:51;61.73;;;20.07;;
9082;SDS011;4577;48.704;9.000;2022-12-18T12:19:40;86.97;;;24.03;;
9082;SDS011;4577;48.704;9.000;2022-12-18T12:30:21;41.27;;;19.10;;
9082;SDS011;4577;48.704;9.000;2022-12-18T12:38:04;52.77;;;21.03;;
9082;SDS011;4577;48.704;9.000;2022-12-18T12:40:37;43.07;;;19.00;;
9082;SDS011;4577;48.704;9.000;2022-12-18T12:43:40;38.23;;;17.90;;
9082;SDS011;4577;48.704;9.000;2022-12-18T12:46:10;37.30;;;16.33;;
9082;SDS011;4577;48.704;9.000;2022-12-18T12:48:52;38.97;;;18.40;;
9082;SDS011;4577;48.704;9.000;2022-12-18T12:51:33;121.17;;;27.50;;
9082;SDS011;4577;48.704;9.000;2022-12-18T12:54:02;43.50;;;18.73;;
9082;SDS011;4577;48.704;9.000;2022-12-18T12:56:43;40.87;;;18.83;;
9082;SDS011;4577;48.704;9.000;2022-12-18T13:02:35;42.80;;;19.27;;
9082;SDS011;4577;48.704;9.000;2022-12-18T13:05:17;41.40;;;18.80;;
9082;SDS011;4577;48.704;9.000;2022-12-18T13:07:59;46.93;;;20.23;;
9082;SDS011;4577;48.704;9.000;2022-12-18T13:15:34;43.10;;;18.83;;
9082;SDS011;4577;48.704;9.000;2022-12-18T13:18:06;39.80;;;18.33;;
9082;SDS011;4577;48.704;9.000;2022-12-18T13:33:40;134.50;;;49.53;;
9082;SDS011;4577;48.704;9.000;2022-12-18T13:41:41;98.70;;;32.57;;
9082;SDS011;4577;48.704;9.000;2022-12-18T13:46:54;48.73;;;22.40;;
9082;SDS011;4577;48.704;9.000;2022-12-18T13:49:40;44.00;;;20.60;;
9082;SDS011;4577;48.704;9.000;2022-12-18T13:52:18;47.40;;;20.03;;
9082;SDS011;4577;48.704;9.000;2022-12-18T13:54:56;49.97;;;23.00;;
9082;SDS011;4577;48.704;9.000;2022-12-18T13:57:31;56.40;;;24.90;;
9082;SDS011;4577;48.704;9.000;2022-12-18T14:00:14;51.13;;;22.40;;
9082;SDS011;4577;48.704;9.000;2022-12-18T14:02:44;57.93;;;21.53;;
9082;SDS011;4577;48.704;9.000;2022-12-18T14:08:10;47.43;;;21.07;;
9082;SDS011;4577;48.704;9.000;2022-12-18T14:10:42;60.20;;;25.50;;
9082;SDS011;4577;48.704;9.000;2022-12-18T14:13:24;40.80;;;18.53;;
9082;SDS011;4577;48.704;9.000;2022-12-18T14:15:55;46.90;;;19.83;;
9082;SDS011;4577;48.704;9.000;2022-12-18T14:18:23;50.50;;;22.13;;
9082;SDS011;4577;48.704;9.000;2022-12-18T14:21:18;40.90;;;19.97;;
9082;SDS011;4577;48.704;9.000;2022-12-18T14:24:02;47.27;;;20.40;;
9082;SDS011;4577;48.704;9.000;2022-12-18T14:26:29;45.17;;;21.40;;
9082;SDS011;4577;48.704;9.000;2022-12-18T14:28:56;45.03;;;19.80;;
9082;SDS011;4577;48.704;9.000;2022-12-18T14:31:26;68.90;;;24.07;;
9082;SDS011;4577;48.704;9.000;2022-12-18T14:33:54;59.47;;;23.10;;
9082;SDS011;4577;48.704;9.000;2022-12-18T14:36:24;214.60;;;87.20;;
9082;SDS011;4577;48.704;9.000;2022-12-18T14:38:53;82.63;;;35.20;;
9082;SDS011;4577;48.704;9.000;2022-12-18T14:41:23;178.43;;;36.83;;
9082;SDS011;4577;48.704;9.000;2022-12-18T14:43:51;76.20;;;25.70;;
9082;SDS011;4577;48.704;9.000;2022-12-18T14:46:35;65.50;;;25.10;;
9082;SDS011;4577;48.704;9.000;2022-12-18T14:49:14;113.93;;;26.07;;
9082;SDS011;4577;48.704;9.000;2022-12-18T14:51:49;53.10;;;23.23;;
9082;SDS011;4577;48.704;9.000;2022-12-18T14:54:20;126.30;;;46.53;;
9082;SDS011;4577;48.704;9.000;2022-12-18T14:56:48;215.43;;;96.13;;
9082;SDS011;4577;48.704;9.000;2022-12-18T14:59:18;80.60;;;35.50;;
9082;SDS011;4577;48.704;9.000;2022-12-18T15:04:45;55.27;;;23.27;;
9082;SDS011;4577;48.704;9.000;2022-12-18T15:09:37;50.20;;;23.20;;
9082;SDS011;4577;48.704;9.000;2022-12-18T15:12:05;54.07;;;23.97;;
9082;SDS011;4577;48.704;9.000;2022-12-18T15:17:14;52.97;;;24.37;;
9082;SDS011;4577;48.704;9.000;2022-12-18T15:19:41;52.20;;;24.00;;
9082;SDS011;4577;48.704;9.000;2022-12-18T15:22:23;54.83;;;24.90;;
9082;SDS011;4577;48.704;9.000;2022-12-18T15:24:51;55.43;;;23.60;;
9082;SDS011;4577;48.704;9.000;2022-12-18T15:27:22;49.67;;;22.57;;
9082;SDS011;4577;48.704;9.000;2022-12-18T15:30:00;52.63;;;22.90;;
9082;SDS011;4577;48.704;9.000;2022-12-18T15:32:28;47.77;;;23.00;;
9082;SDS011;4577;48.704;9.000;2022-12-18T15:35:11;56.03;;;23.30;;
9082;SDS011;4577;48.704;9.000;2022-12-18T15:37:40;85.83;;;34.10;;
9082;SDS011;4577;48.704;9.000;2022-12-18T15:40:08;56.77;;;25.77;;
9082;SDS011;4577;48.704;9.000;2022-12-18T15:42:41;55.10;;;23.20;;
9082;SDS011;4577;48.704;9.000;2022-12-18T15:45:26;68.70;;;28.53;;
9082;SDS011;4577;48.704;9.000;2022-12-18T15:47:52;66.37;;;27.40;;
9082;SDS011;4577;48.704;9.000;2022-12-18T15:50:17;60.33;;;26.60;;
9082;SDS011;4577;48.704;9.000;2022-12-18T15:52:44;67.97;;;30.50;;
9082;SDS011;4577;48.704;9.000;2022-12-18T15:55:15;74.33;;;28.50;;
9082;SDS011;4577;48.704;9.000;2022-12-18T15:58:01;93.93;;;34.20;;
9082;SDS011;4577;48.704;9.000;2022-12-18T16:00:27;86.53;;;32.83;;
9082;SDS011;4577;48.704;9.000;2022-12-18T16:02:53;80.37;;;34.70;;
9082;SDS011;4577;48.704;9.000;2022-12-18T16:05:20;57.00;;;26.27;;
9082;SDS011;4577;48.704;9.000;2022-12-18T16:07:46;71.63;;;31.10;;
9082;SDS011;4577;48.704;9.000;2022-12-18T16:10:12;109.73;;;39.87;;
9082;SDS011;4577;48.704;9.000;2022-12-18T16:12:38;67.70;;;29.23;;
9082;SDS011;4577;48.704;9.000;2022-12-18T16:15:06;58.70;;;26.70;;
9082;SDS011;4577;48.704;9.000;2022-12-18T16:17:32;51.80;;;22.93;;
9082;SDS011;4577;48.704;9.000;2022-12-18T16:19:58;66.67;;;29.20;;
9082;SDS011;4577;48.704;9.000;2022-12-18T16:22:25;68.80;;;28.57;;
9082;SDS011;4577;48.704;9.000;2022-12-18T16:24:54;63.90;;;27.10;;
9082;SDS011;4577;48.704;9.000;2022-12-18T16:27:21;96.37;;;32.90;;
9082;SDS011;4577;48.704;9.000;2022-12-18T16:29:47;88.87;;;35.03;;
9082;SDS011;4577;48.704;9.000;2022-12-18T16:32:17;99.90;;;34.90;;
9082;SDS011;4577;48.704;9.000;2022-12-18T16:34:45;124.13;;;42.43;;
9082;SDS011;4577;48.704;9.000;2022-12-18T16:37:11;136.47;;;47.47;;
9082;SDS011;4577;48.704;9.000;2022-12-18T16:39:39;109.90;;;38.43;;
9082;SDS011;4577;48.704;9.000;2022-12-18T16:42:06;104.33;;;37.37;;
9082;SDS011;4577;48.704;9.000;2022-12-18T16:44:42;101.00;;;36.47;;
9082;SDS011;4577;48.704;9.000;2022-12-18T16:47:08;112.10;;;41.50;;
9082;SDS011;4577;48.704;9.000;2022-12-18T16:49:34;87.97;;;34.17;;
9082;SDS011;4577;48.704;9.000;2022-12-18T16:52:06;90.97;;;33.53;;
9082;SDS011;4577;48.704;9.000;2022-12-18T16:54:34;100.03;;;37.10;;
9082;SDS011;4577;48.704;9.000;2022-12-18T16:57:01;132.40;;;46.30;;
9082;SDS011;4577;48.704;9.000;2022-12-18T16:59:27;81.50;;;31.00;;
9082;SDS011;4577;48.704;9.000;2022-12-18T17:01:53;69.13;;;27.50;;
9082;SDS011;4577;48.704;9.000;2022-12-18T17:04:21;84.30;;;33.23;;